To NAV CANADA Home Page Login to a new session Search on AWWS site Feedback and Comments Disclaimer Vers la page française équivalente Tips FAQ What's new on the site To the Forecasts and Observations / NOTAM section To "File a Flight Plan" website Publications and other links Update of the User's profile FIC Telephone Numbers My Weather Data Folder Route Weather Data Regional Weather Data Local Weather Data To the Forecasts and Observations / NOTAM section
Request Generated 04/17/2014 at 12:51:38 UTC . Weather information available at that time is displayed.

METAR/TAF

ST. ANTHONY/NL    (show WxCam)

METAR CYAY 171200Z AUTO 25020G29KT 9SM CLR M07/M15 A3048 RMK MAX WND
25024KT AT 1136Z PRESRR SLP322=
METAR CYAY 171100Z AUTO 26021G26KT 9SM CLR M07/M15 A3043 RMK MAX WND
26021KT AT 1100Z PRESRR SLP307=
METAR CYAY 171000Z AUTO 29014G19KT 9SM CLR M07/M14 A3041 RMK MAX WND
27019KT AT 0924Z PRESRR SLP299=

TAF CYAY 170738Z 1708/1720 26015KT P6SM FEW030
BECMG 1712/1714 27020G30KT
FM171600 26020G30KT P6SM BKN030
RMK FCST BASED ON AUTO OBS. NXT FCST BY 171400Z=
Your time UTC time
Weather data provided by Environment Canada and NAV CANADA